Time;durP1;ratioP1;P1;durP2;ratioP2;P2;SDS_P1;SDS_P2;PMS_P1;PMS_P2;Temp;Humidity;BMP_temperature;BMP_pressure;BME280_temperature;BME280_humidity;BME280_pressure;Samples;Min_cycle;Max_cycle;Signal;HPM_P1;HPM_P2
2022/10/20 00:01:22;;;;;;;14.95;5.88;;;7.70;99.90;;;;;;6042434;23;20014;-85
2022/10/20 00:03:48;;;;;;;11.55;5.38;;;7.50;99.90;;;;;;6042635;23;20376;-86
2022/10/20 00:06:16;;;;;;;11.95;5.20;;;7.50;99.90;;;;;;6043641;23;20037;-85
2022/10/20 00:08:43;;;;;;;16.13;6.05;;;7.70;99.90;;;;;;6042818;23;20014;-85
2022/10/20 00:11:10;;;;;;;12.93;5.13;;;7.80;99.90;;;;;;6042402;23;20026;-85
2022/10/20 00:13:37;;;;;;;13.40;5.28;;;7.90;99.90;;;;;;6042188;23;20018;-84
2022/10/20 00:16:03;;;;;;;12.73;5.70;;;7.50;99.90;;;;;;6020121;23;20089;-84
2022/10/20 00:18:28;;;;;;;13.50;5.63;;;7.40;99.90;;;;;;6041782;23;20049;-85
2022/10/20 00:20:55;;;;;;;11.93;5.80;;;7.90;99.90;;;;;;6043015;23;20429;-84
2022/10/20 00:23:21;;;;;;;14.40;5.50;;;7.40;99.90;;;;;;6065089;23;20018;-85
2022/10/20 00:25:47;;;;;;;11.45;5.70;;;7.30;99.90;;;;;;6042173;23;20029;-84
2022/10/20 00:28:13;;;;;;;12.48;5.65;;;7.30;99.90;;;;;;6018427;23;20449;-85
2022/10/20 00:30:39;;;;;;;14.63;5.65;;;7.30;99.90;;;;;;6040037;23;20025;-84
2022/10/20 00:33:05;;;;;;;14.20;5.35;;;7.90;99.90;;;;;;6042758;23;20015;-84
2022/10/20 00:35:32;;;;;;;12.32;5.40;;;7.20;99.90;;;;;;6041725;23;20010;-84
2022/10/20 00:37:57;;;;;;;14.35;5.50;;;7.50;99.90;;;;;;6018524;23;20343;-84
2022/10/20 00:40:23;;;;;;;16.63;5.80;;;8.10;99.90;;;;;;6042856;23;20045;-84
2022/10/20 00:42:49;;;;;;;12.35;5.60;;;7.10;99.90;;;;;;6067094;23;20021;-85
2022/10/20 00:45:18;;;;;;;12.30;5.28;;;7.10;99.90;;;;;;6066939;23;20050;-85
2022/10/20 00:47:49;;;;;;;11.48;5.25;;;7.10;99.90;;;;;;6066213;23;20029;-84
2022/10/20 00:50:24;;;;;;;11.25;5.03;;;7.10;99.90;;;;;;6042395;23;20275;-85
2022/10/20 00:52:52;;;;;;;13.02;5.65;;;7.30;99.90;;;;;;6043205;23;20069;-84
2022/10/20 00:55:29;;;;;;;10.82;4.70;;;7.10;99.90;;;;;;6065919;23;20011;-85
2022/10/20 00:57:58;;;;;;;13.38;5.55;;;7.00;99.90;;;;;;6044772;23;20046;-84
2022/10/20 01:00:24;;;;;;;14.88;5.20;;;7.10;99.90;;;;;;6067159;23;20077;-84
2022/10/20 01:02:53;;;;;;;10.60;5.35;;;7.00;99.90;;;;;;6067803;23;20018;-84
2022/10/20 01:05:19;;;;;;;13.95;5.45;;;8.20;99.90;;;;;;6068197;23;20478;-84
2022/10/20 01:07:45;;;;;;;12.55;5.00;;;7.00;99.90;;;;;;6068969;23;20041;-84
2022/10/20 01:10:11;;;;;;;14.48;5.25;;;7.00;99.90;;;;;;6020729;23;20022;-84
2022/10/20 01:12:50;;;;;;;12.57;5.78;;;7.00;99.90;;;;;;6019737;23;20018;-85
2022/10/20 01:15:42;;;;;;;11.65;4.95;;;7.00;99.90;;;;;;6068661;23;20018;-85
2022/10/20 01:18:14;;;;;;;13.43;5.53;;;7.00;99.90;;;;;;6044534;23;20056;-85
2022/10/20 01:21:03;;;;;;;12.43;5.07;;;7.30;99.90;;;;;;6043808;23;20115;-85
2022/10/20 01:24:00;;;;;;;12.55;5.15;;;7.00;99.90;;;;;;6043501;23;20022;-85
2022/10/20 01:27:08;;;;;;;11.93;4.93;;;7.00;99.90;;;;;;6044154;23;20423;-85
2022/10/20 01:30:00;;;;;;;11.95;4.88;;;6.90;99.90;;;;;;6092346;23;20073;-85
2022/10/20 01:32:50;;;;;;;11.50;4.97;;;6.90;99.90;;;;;;6057925;23;20054;-85
2022/10/20 01:35:42;;;;;;;11.32;5.35;;;6.90;99.90;;;;;;6042714;23;20121;-86
2022/10/20 01:38:10;;;;;;;16.70;4.82;;;6.90;99.90;;;;;;6043892;23;20414;-86
2022/10/20 01:40:48;;;;;;;12.73;5.43;;;6.90;99.90;;;;;;6044034;23;20018;-86
2022/10/20 01:43:17;;;;;;;11.82;5.18;;;6.90;99.90;;;;;;6044133;23;20018;-86
2022/10/20 01:45:47;;;;;;;16.13;5.70;;;7.50;99.90;;;;;;6067868;23;20254;-86
2022/10/20 01:48:16;;;;;;;12.55;5.75;;;6.80;99.90;;;;;;6043986;23;20025;-86
2022/10/20 01:50:44;;;;;;;11.07;5.20;;;6.80;99.90;;;;;;6091513;23;20018;-86
2022/10/20 01:53:10;;;;;;;12.35;5.20;;;6.80;99.90;;;;;;6067721;23;20416;-86
2022/10/20 01:55:37;;;;;;;12.05;5.15;;;7.30;99.90;;;;;;6021392;23;20014;-86
2022/10/20 01:58:25;;;;;;;12.90;5.47;;;7.10;99.90;;;;;;6042430;23;20014;-86
2022/10/20 02:00:53;;;;;;;11.85;4.95;;;6.80;99.90;;;;;;6068118;23;21005;-86
2022/10/20 02:03:57;;;;;;;10.00;4.40;;;7.30;99.90;;;;;;6067971;23;20036;-86
2022/10/20 02:06:41;;;;;;;11.50;5.28;;;6.80;99.90;;;;;;6044381;23;20021;-86
2022/10/20 02:09:24;;;;;;;11.85;5.40;;;6.80;99.90;;;;;;6042620;23;20025;-86
2022/10/20 02:12:06;;;;;;;11.95;5.10;;;6.80;99.90;;;;;;6043279;23;20014;-86
2022/10/20 02:14:32;;;;;;;12.50;5.00;;;7.10;99.90;;;;;;6068119;23;20325;-86
2022/10/20 02:17:03;;;;;;;12.05;5.68;;;6.70;99.90;;;;;;6043113;23;20006;-86
2022/10/20 02:19:35;;;;;;;10.38;4.68;;;6.70;99.90;;;;;;6067834;23;20405;-85
2022/10/20 02:22:01;;;;;;;13.30;4.90;;;7.80;99.90;;;;;;6043594;23;20018;-84
2022/10/20 02:24:33;;;;;;;13.43;5.10;;;6.70;99.90;;;;;;6043938;23;20139;-85
2022/10/20 02:27:03;;;;;;;11.98;4.95;;;6.80;99.90;;;;;;6043131;23;20018;-84
2022/10/20 02:29:45;;;;;;;13.45;5.65;;;6.70;99.90;;;;;;6043531;23;20633;-84
2022/10/20 02:32:11;;;;;;;12.52;4.90;;;6.70;99.90;;;;;;6043428;23;20014;-84
2022/10/20 02:34:37;;;;;;;11.50;5.30;;;6.70;99.90;;;;;;6042697;23;20014;-85
2022/10/20 02:37:03;;;;;;;10.63;5.07;;;6.70;99.90;;;;;;6042167;23;20022;-84
2022/10/20 02:39:29;;;;;;;12.52;5.25;;;6.70;99.90;;;;;;6066971;23;20344;-85
2022/10/20 02:41:54;;;;;;;12.13;5.00;;;6.70;99.90;;;;;;6043611;23;20018;-85
2022/10/20 02:44:21;;;;;;;13.30;5.50;;;7.30;99.90;;;;;;6020221;23;20021;-85
2022/10/20 02:46:47;;;;;;;12.05;5.10;;;7.00;99.90;;;;;;6043245;23;20073;-84
2022/10/20 02:49:13;;;;;;;13.10;5.13;;;6.70;99.90;;;;;;6066297;23;20062;-84
2022/10/20 02:51:38;;;;;;;12.10;5.38;;;6.70;99.90;;;;;;6066739;23;20014;-86
2022/10/20 02:54:04;;;;;;;10.48;5.30;;;6.70;99.90;;;;;;6066782;23;20022;-84
2022/10/20 02:56:30;;;;;;;12.10;5.50;;;6.70;99.90;;;;;;6020102;23;20042;-84
2022/10/20 02:58:55;;;;;;;11.13;5.57;;;6.60;99.90;;;;;;6067149;23;20014;-84
2022/10/20 03:01:21;;;;;;;12.10;5.50;;;6.60;99.90;;;;;;6066152;23;20014;-84
2022/10/20 03:03:47;;;;;;;12.48;6.10;;;6.70;99.90;;;;;;6042648;23;20018;-84
2022/10/20 03:06:15;;;;;;;12.57;5.70;;;6.70;99.90;;;;;;6042149;23;20018;-84
2022/10/20 03:08:41;;;;;;;12.80;5.80;;;6.70;99.90;;;;;;6043050;23;20368;-84
2022/10/20 03:11:07;;;;;;;14.02;6.22;;;7.30;99.90;;;;;;6020582;23;20022;-84
2022/10/20 03:13:33;;;;;;;11.75;5.95;;;6.70;99.90;;;;;;6066792;23;20400;-84
2022/10/20 03:16:00;;;;;;;13.13;6.18;;;6.70;99.90;;;;;;6043568;23;20596;-84
2022/10/20 03:18:26;;;;;;;11.93;6.50;;;6.70;99.90;;;;;;6066074;23;20018;-85
2022/10/20 03:20:53;;;;;;;13.77;6.10;;;6.70;99.90;;;;;;6066842;23;20014;-85
2022/10/20 03:23:19;;;;;;;11.95;6.20;;;6.80;99.90;;;;;;6042913;23;20030;-85
2022/10/20 03:25:45;;;;;;;11.75;5.72;;;7.40;99.90;;;;;;6043042;23;20021;-85
2022/10/20 03:28:12;;;;;;;13.27;6.18;;;6.80;99.90;;;;;;6042391;23;20022;-86
2022/10/20 03:30:37;;;;;;;13.15;6.75;;;7.30;99.90;;;;;;6042039;23;20029;-85
2022/10/20 03:33:03;;;;;;;13.00;6.80;;;6.80;99.90;;;;;;6067221;23;20018;-86
2022/10/20 03:35:29;;;;;;;16.05;6.85;;;7.10;99.90;;;;;;5995572;23;20045;-86
2022/10/20 03:37:54;;;;;;;12.20;6.53;;;6.80;99.90;;;;;;6066277;23;20089;-86
2022/10/20 03:40:20;;;;;;;14.27;6.53;;;7.00;99.90;;;;;;6018555;23;20037;-85
2022/10/20 03:42:46;;;;;;;14.18;6.70;;;6.80;99.90;;;;;;6042348;23;20046;-86
2022/10/20 03:45:11;;;;;;;12.07;6.55;;;6.80;99.90;;;;;;6065596;23;20033;-86
2022/10/20 03:47:37;;;;;;;16.15;6.90;;;7.00;99.90;;;;;;6043212;23;20023;-85
2022/10/20 03:50:03;;;;;;;13.23;7.10;;;6.80;99.90;;;;;;6042036;23;20019;-86
2022/10/20 03:52:29;;;;;;;14.32;7.13;;;6.80;99.90;;;;;;6067090;23;20026;-85
2022/10/20 03:54:54;;;;;;;13.32;7.20;;;7.50;99.90;;;;;;6042557;23;20385;-86
2022/10/20 03:57:20;;;;;;;14.18;7.57;;;8.20;99.90;;;;;;6043236;23;20016;-86
2022/10/20 03:59:46;;;;;;;16.50;7.35;;;7.00;99.90;;;;;;6043877;23;20089;-86
2022/10/20 04:02:42;;;;;;;13.93;7.25;;;8.10;99.90;;;;;;6065311;23;20019;-86
2022/10/20 04:05:14;;;;;;;14.68;7.10;;;6.80;99.90;;;;;;6064087;23;20021;-86
2022/10/20 04:07:39;;;;;;;14.60;7.45;;;6.70;99.90;;;;;;6043557;23;20511;-86
2022/10/20 04:10:05;;;;;;;11.60;7.10;;;6.70;99.90;;;;;;6042441;23;20018;-86
2022/10/20 04:12:31;;;;;;;13.55;7.18;;;6.70;99.90;;;;;;6041252;23;20023;-85
2022/10/20 04:14:57;;;;;;;15.65;7.63;;;6.90;99.90;;;;;;6043189;23;20057;-86
2022/10/20 04:17:23;;;;;;;13.52;7.15;;;5.90;99.90;;;;;;6019744;23;20034;-86
2022/10/20 04:19:48;;;;;;;13.40;7.32;;;7.20;99.90;;;;;;6019024;23;20020;-86
2022/10/20 04:22:14;;;;;;;13.70;7.88;;;7.10;99.90;;;;;;6042820;23;20019;-85
2022/10/20 04:24:40;;;;;;;13.63;7.65;;;6.70;99.90;;;;;;6066947;23;20019;-86
2022/10/20 04:27:06;;;;;;;13.75;7.80;;;7.00;99.90;;;;;;6018807;23;20021;-86
2022/10/20 04:29:32;;;;;;;14.68;7.43;;;6.60;99.90;;;;;;6042980;23;20053;-86
2022/10/20 04:31:57;;;;;;;14.38;7.60;;;6.60;99.90;;;;;;6044104;23;20343;-86
2022/10/20 04:34:23;;;;;;;15.52;8.05;;;6.60;99.90;;;;;;6044691;23;20089;-86
2022/10/20 04:36:49;;;;;;;14.95;7.72;;;6.60;99.90;;;;;;6044031;23;20019;-86
2022/10/20 04:39:15;;;;;;;12.43;7.57;;;6.60;99.90;;;;;;6044067;23;20344;-86
2022/10/20 04:41:41;;;;;;;13.35;8.10;;;6.60;99.90;;;;;;6044223;23;20065;-87
2022/10/20 04:44:07;;;;;;;14.50;8.20;;;7.90;99.90;;;;;;6043436;23;20479;-85
2022/10/20 04:46:32;;;;;;;17.88;8.50;;;6.60;99.90;;;;;;6066927;23;20150;-86
2022/10/20 04:48:58;;;;;;;13.32;8.02;;;6.70;99.90;;;;;;6067219;23;20018;-87
2022/10/20 04:51:24;;;;;;;14.32;8.48;;;6.60;99.90;;;;;;6020518;23;20093;-86
2022/10/20 04:53:49;;;;;;;14.10;8.32;;;6.60;99.90;;;;;;6043256;23;20018;-86
2022/10/20 04:56:18;;;;;;;14.70;8.77;;;7.90;99.90;;;;;;6020283;23;20349;-86
2022/10/20 04:58:48;;;;;;;15.35;9.05;;;6.60;99.90;;;;;;6019747;23;20053;-86
2022/10/20 05:01:14;;;;;;;15.40;8.48;;;6.60;99.90;;;;;;6042996;23;20018;-86
2022/10/20 05:03:40;;;;;;;16.30;8.93;;;6.80;99.90;;;;;;6043308;23;20068;-86
2022/10/20 05:06:20;;;;;;;14.43;8.05;;;6.60;99.90;;;;;;6020442;23;20090;-87
2022/10/20 05:08:48;;;;;;;15.55;8.93;;;6.60;99.90;;;;;;6043630;23;20022;-87
2022/10/20 05:11:15;;;;;;;15.48;8.57;;;6.60;99.90;;;;;;6068528;23;20025;-87
2022/10/20 05:13:41;;;;;;;14.25;8.82;;;7.10;99.90;;;;;;6043219;23;20018;-87
2022/10/20 05:16:08;;;;;;;15.32;8.50;;;7.30;99.90;;;;;;6068125;23;20014;-86
2022/10/20 05:18:34;;;;;;;16.42;9.30;;;7.50;99.90;;;;;;6044472;23;20011;-86
2022/10/20 05:21:04;;;;;;;14.32;8.70;;;6.50;99.90;;;;;;6068788;23;20062;-87
2022/10/20 05:23:30;;;;;;;15.45;9.23;;;8.10;99.90;;;;;;6044483;23;20022;-86
2022/10/20 05:25:56;;;;;;;16.52;9.00;;;8.10;99.90;;;;;;6021042;23;20021;-87
2022/10/20 05:28:21;;;;;;;16.52;8.57;;;6.50;99.90;;;;;;6020602;23;20381;-86
2022/10/20 05:30:47;;;;;;;15.90;9.18;;;6.50;99.90;;;;;;6067838;23;20029;-87
2022/10/20 05:33:13;;;;;;;15.55;9.25;;;6.50;99.90;;;;;;6068417;23;20018;-86
2022/10/20 05:35:38;;;;;;;15.75;9.32;;;7.80;99.90;;;;;;6044589;23;20018;-86
2022/10/20 05:38:04;;;;;;;16.10;9.57;;;7.70;99.90;;;;;;6017710;23;20128;-87
2022/10/20 05:40:30;;;;;;;17.23;9.00;;;6.50;99.90;;;;;;6042958;23;20480;-87
2022/10/20 05:42:56;;;;;;;15.93;9.40;;;7.70;99.90;;;;;;6019891;23;20085;-87
2022/10/20 05:45:22;;;;;;;16.65;9.85;;;6.80;99.90;;;;;;6044073;23;20018;-86
2022/10/20 05:47:47;;;;;;;16.27;9.38;;;6.90;99.90;;;;;;6043898;23;20081;-86
2022/10/20 05:50:13;;;;;;;16.85;9.55;;;6.50;99.90;;;;;;6043996;23;20024;-86
2022/10/20 05:52:39;;;;;;;15.20;9.82;;;6.40;99.90;;;;;;6044530;23;20491;-87
2022/10/20 05:55:05;;;;;;;15.80;9.80;;;6.50;99.90;;;;;;6044212;23;20019;-86
2022/10/20 05:57:31;;;;;;;19.08;10.52;;;6.50;99.90;;;;;;6043988;23;20086;-87
2022/10/20 05:59:56;;;;;;;14.85;9.70;;;6.50;99.90;;;;;;6043548;23;20015;-87
2022/10/20 06:02:22;;;;;;;16.83;10.60;;;7.80;99.90;;;;;;6044409;23;20050;-86
2022/10/20 06:04:48;;;;;;;17.08;10.07;;;6.70;99.90;;;;;;6044015;23;20021;-86
2022/10/20 06:07:13;;;;;;;16.25;9.38;;;6.50;99.90;;;;;;6020621;23;20014;-87
2022/10/20 06:09:39;;;;;;;19.48;10.15;;;7.30;99.90;;;;;;6043230;23;20018;-86
2022/10/20 06:12:05;;;;;;;18.27;10.05;;;6.40;99.90;;;;;;6043589;23;20403;-86
2022/10/20 06:14:31;;;;;;;17.98;9.25;;;7.30;99.90;;;;;;6044394;23;20436;-86
2022/10/20 06:16:57;;;;;;;16.52;9.88;;;7.60;99.90;;;;;;6043403;23;20069;-86
2022/10/20 06:19:24;;;;;;;16.27;10.20;;;6.40;99.90;;;;;;6044037;23;20018;-87
2022/10/20 06:21:50;;;;;;;17.35;9.63;;;6.40;99.90;;;;;;6067709;23;20081;-87
2022/10/20 06:24:17;;;;;;;16.50;9.73;;;7.50;99.90;;;;;;6043813;23;20036;-87
2022/10/20 06:26:43;;;;;;;16.05;10.02;;;6.50;99.90;;;;;;6044611;23;20014;-87
2022/10/20 06:29:12;;;;;;;17.55;10.25;;;6.40;99.90;;;;;;6043490;23;20354;-87
2022/10/20 06:31:41;;;;;;;17.33;10.50;;;6.40;99.90;;;;;;6068164;23;20017;-87
2022/10/20 06:34:15;;;;;;;16.45;10.00;;;6.40;99.90;;;;;;6067470;23;20054;-87
2022/10/20 06:36:41;;;;;;;17.40;10.60;;;6.40;99.90;;;;;;6045823;23;20089;-86
2022/10/20 06:39:10;;;;;;;17.50;10.68;;;7.70;99.90;;;;;;6043065;23;20321;-86
2022/10/20 06:41:36;;;;;;;17.70;10.60;;;7.00;99.90;;;;;;6044136;23;20017;-87
2022/10/20 06:44:02;;;;;;;16.85;10.68;;;6.40;99.90;;;;;;6043600;23;20022;-86
2022/10/20 06:46:30;;;;;;;17.83;10.75;;;7.00;99.90;;;;;;6043828;23;20021;-86
2022/10/20 06:48:59;;;;;;;18.45;10.50;;;6.50;99.90;;;;;;6042966;23;20027;-87
2022/10/20 06:51:25;;;;;;;18.67;10.68;;;7.50;99.90;;;;;;6067812;23;20388;-87
2022/10/20 06:53:51;;;;;;;16.17;10.25;;;6.60;99.90;;;;;;6043181;23;20138;-86
2022/10/20 06:56:20;;;;;;;17.67;10.85;;;6.60;99.90;;;;;;6043586;23;20142;-87
2022/10/20 06:58:48;;;;;;;17.63;11.60;;;6.70;99.90;;;;;;6067681;23;20045;-86
2022/10/20 07:01:19;;;;;;;19.98;10.20;;;6.70;99.90;;;;;;6042112;23;20010;-87
2022/10/20 07:03:46;;;;;;;16.85;10.05;;;6.70;99.90;;;;;;6043271;23;20476;-87
2022/10/20 07:06:34;;;;;;;16.23;10.02;;;8.20;99.90;;;;;;6067469;23;20393;-87
2022/10/20 07:09:02;;;;;;;16.05;10.35;;;6.80;99.90;;;;;;6043562;23;20014;-86
2022/10/20 07:11:30;;;;;;;15.80;9.82;;;7.90;99.90;;;;;;6019430;23;20010;-86
2022/10/20 07:13:58;;;;;;;19.67;10.13;;;6.90;99.90;;;;;;6043521;23;20018;-87
2022/10/20 07:16:25;;;;;;;16.77;10.55;;;6.90;99.90;;;;;;6043670;23;20141;-86
2022/10/20 07:18:51;;;;;;;17.10;10.35;;;7.00;99.90;;;;;;6043562;23;20015;-87
2022/10/20 07:21:19;;;;;;;16.88;10.38;;;7.00;99.90;;;;;;6066681;23;20018;-86
2022/10/20 07:23:46;;;;;;;16.50;10.75;;;7.10;99.90;;;;;;6043266;23;20025;-86
2022/10/20 07:26:23;;;;;;;16.52;10.63;;;7.10;99.90;;;;;;6067482;23;20014;-86
2022/10/20 07:28:51;;;;;;;16.52;10.93;;;8.60;99.90;;;;;;6043415;23;20018;-86
2022/10/20 07:31:20;;;;;;;18.73;10.50;;;8.90;99.90;;;;;;6066932;23;20010;-87
2022/10/20 07:33:46;;;;;;;17.70;10.18;;;7.30;99.90;;;;;;6042661;23;20113;-88
2022/10/20 07:36:17;;;;;;;16.70;9.25;;;7.40;99.90;;;;;;6043406;23;20053;-87
2022/10/20 07:38:43;;;;;;;17.17;9.73;;;7.40;99.90;;;;;;6043253;23;20025;-85
2022/10/20 07:41:10;;;;;;;17.50;9.93;;;7.40;99.90;;;;;;6042841;23;20010;-85
2022/10/20 07:43:37;;;;;;;17.35;10.10;;;7.50;99.90;;;;;;6066625;23;20018;-85
2022/10/20 07:46:03;;;;;;;15.38;9.65;;;8.10;99.90;;;;;;6067387;23;20053;-85
2022/10/20 07:48:29;;;;;;;16.80;9.70;;;7.50;99.90;;;;;;6066716;23;20022;-85
2022/10/20 07:51:12;;;;;;;16.73;9.80;;;7.80;99.90;;;;;;6067429;23;20018;-86
2022/10/20 07:53:38;;;;;;;18.10;10.10;;;7.50;99.90;;;;;;6065273;23;20406;-86
2022/10/20 07:56:04;;;;;;;17.80;9.48;;;7.50;99.90;;;;;;6042472;23;20025;-86
2022/10/20 07:58:30;;;;;;;15.60;9.32;;;7.60;99.90;;;;;;6042618;23;20033;-86
2022/10/20 08:00:55;;;;;;;17.13;10.35;;;7.60;99.90;;;;;;6043291;23;20041;-85
2022/10/20 08:03:21;;;;;;;16.83;9.38;;;7.60;99.90;;;;;;6042317;23;20369;-85
2022/10/20 08:05:47;;;;;;;17.02;9.48;;;7.80;99.90;;;;;;6042278;23;20014;-85
2022/10/20 08:08:12;;;;;;;18.45;10.27;;;7.70;99.90;;;;;;6042791;23;20523;-85
2022/10/20 08:10:38;;;;;;;16.00;8.93;;;7.80;99.90;;;;;;6043127;23;20014;-85
2022/10/20 08:13:04;;;;;;;16.27;8.85;;;7.70;99.90;;;;;;6042364;23;20015;-85
2022/10/20 08:15:29;;;;;;;15.63;8.98;;;7.80;99.90;;;;;;6019539;23;20503;-85
2022/10/20 08:17:55;;;;;;;16.05;9.00;;;7.80;99.90;;;;;;6042444;23;20089;-85
2022/10/20 08:20:21;;;;;;;45.33;9.52;;;7.90;99.90;;;;;;6066818;23;20069;-86
2022/10/20 08:22:46;;;;;;;13.85;8.70;;;7.90;99.90;;;;;;6043158;23;20029;-86
2022/10/20 08:25:16;;;;;;;14.45;9.23;;;9.40;99.90;;;;;;6042222;23;20015;-85
2022/10/20 08:27:42;;;;;;;16.42;9.35;;;8.10;99.90;;;;;;6066736;23;20393;-85
2022/10/20 08:30:08;;;;;;;14.93;9.10;;;8.10;99.90;;;;;;6066630;23;20024;-85
2022/10/20 08:32:34;;;;;;;16.45;8.85;;;8.20;99.90;;;;;;6043424;23;20021;-86
2022/10/20 08:35:00;;;;;;;15.07;8.57;;;8.50;99.90;;;;;;6042285;23;20262;-86
2022/10/20 08:37:29;;;;;;;15.05;9.23;;;8.50;99.90;;;;;;6042956;23;20182;-85
2022/10/20 08:39:54;;;;;;;15.27;9.10;;;8.30;99.90;;;;;;6066715;23;20285;-85
2022/10/20 08:42:20;;;;;;;13.80;8.63;;;8.40;99.90;;;;;;6043090;23;20014;-85
2022/10/20 08:44:47;;;;;;;13.65;8.88;;;8.40;99.90;;;;;;6042551;23;20122;-86
2022/10/20 08:47:27;;;;;;;14.35;8.98;;;9.00;99.90;;;;;;6066660;23;20448;-86
2022/10/20 08:49:53;;;;;;;14.93;8.63;;;8.50;99.90;;;;;;6065750;23;20042;-86
2022/10/20 08:52:21;;;;;;;17.27;9.00;;;8.60;99.90;;;;;;6019530;23;20460;-86
2022/10/20 08:54:51;;;;;;;16.85;8.80;;;8.70;99.90;;;;;;6042897;23;20046;-86
2022/10/20 08:57:30;;;;;;;15.68;8.30;;;9.10;99.90;;;;;;6042563;23;20042;-85
2022/10/20 09:00:11;;;;;;;14.07;7.88;;;8.80;99.90;;;;;;6065716;23;20021;-88
2022/10/20 09:02:36;;;;;;;13.38;8.23;;;8.90;99.90;;;;;;6066863;23;20018;-85
2022/10/20 09:05:05;;;;;;;15.77;8.25;;;8.90;99.90;;;;;;6066376;23;20015;-86
2022/10/20 09:07:35;;;;;;;15.40;8.32;;;9.00;99.90;;;;;;6065925;23;20041;-86
2022/10/20 09:10:17;;;;;;;13.60;8.35;;;9.10;99.90;;;;;;6042096;23;20015;-84
2022/10/20 09:12:44;;;;;;;15.90;7.80;;;9.10;99.90;;;;;;6043083;23;20014;-86
2022/10/20 09:15:12;;;;;;;15.18;8.35;;;9.20;99.90;;;;;;6066735;23;20397;-86
2022/10/20 09:17:41;;;;;;;14.85;8.07;;;10.40;99.90;;;;;;6066879;23;20445;-86
2022/10/20 09:20:26;;;;;;;14.43;8.25;;;10.20;99.90;;;;;;6043825;23;20081;-86
2022/10/20 09:22:51;;;;;;;14.57;8.02;;;9.50;99.90;;;;;;6044708;23;20523;-86
2022/10/20 09:25:22;;;;;;;12.52;7.57;;;9.80;99.90;;;;;;6044707;23;20019;-85
2022/10/20 09:27:49;;;;;;;12.55;7.70;;;9.70;99.90;;;;;;6044174;23;20025;-86
2022/10/20 09:30:34;;;;;;;15.05;7.75;;;9.70;99.90;;;;;;6067342;23;20453;-85
2022/10/20 09:33:26;;;;;;;12.98;7.22;;;11.00;99.90;;;;;;6044140;23;20474;-85
2022/10/20 09:35:51;;;;;;;13.50;7.45;;;9.90;99.90;;;;;;6044384;23;20094;-85
2022/10/20 09:38:22;;;;;;;17.35;7.47;;;9.90;99.90;;;;;;6067532;23;20042;-86
2022/10/20 09:41:07;;;;;;;13.65;7.55;;;9.90;99.90;;;;;;6067197;23;20015;-85
2022/10/20 09:43:32;;;;;;;13.45;7.72;;;10.30;99.90;;;;;;6068111;23;20025;-86
2022/10/20 09:46:04;;;;;;;15.75;7.82;;;10.00;99.90;;;;;;6020909;23;20018;-86
2022/10/20 09:48:34;;;;;;;11.77;7.28;;;10.10;99.90;;;;;;6067936;23;20030;-85
2022/10/20 09:51:00;;;;;;;12.25;7.18;;;10.10;99.90;;;;;;6067176;23;20453;-85
2022/10/20 09:53:38;;;;;;;14.18;7.30;;;10.30;99.90;;;;;;6019787;23;20465;-85
2022/10/20 09:56:04;;;;;;;13.52;7.47;;;10.20;99.90;;;;;;6067996;23;20021;-86
2022/10/20 09:58:33;;;;;;;13.13;7.10;;;10.20;99.90;;;;;;6044339;23;20014;-84
2022/10/20 10:01:15;;;;;;;23.73;8.45;;;10.30;99.90;;;;;;6067841;23;20077;-85
2022/10/20 10:03:43;;;;;;;14.07;7.20;;;10.30;99.90;;;;;;6043800;23;20015;-85
2022/10/20 10:06:41;;;;;;;11.90;7.35;;;10.70;99.90;;;;;;6044636;23;20482;-86
2022/10/20 10:09:34;;;;;;;12.10;6.78;;;10.50;99.90;;;;;;6044117;23;20018;-85
2022/10/20 10:12:09;;;;;;;12.25;7.15;;;10.50;99.90;;;;;;6043839;23;20015;-85
2022/10/20 10:14:35;;;;;;;12.73;6.55;;;10.60;99.90;;;;;;6043545;23;20089;-85
2022/10/20 10:17:01;;;;;;;14.50;6.80;;;10.70;99.90;;;;;;6044365;23;20042;-85
2022/10/20 10:19:32;;;;;;;11.43;6.30;;;10.70;99.90;;;;;;6067682;23;20010;-85
2022/10/20 10:22:01;;;;;;;12.38;6.93;;;10.80;99.90;;;;;;6043765;23;20369;-85
2022/10/20 10:24:37;;;;;;;12.05;6.10;;;10.90;99.90;;;;;;6067601;23;20248;-85
2022/10/20 10:27:02;;;;;;;13.23;7.50;;;10.90;99.90;;;;;;6043898;23;20010;-85
2022/10/20 10:29:31;;;;;;;10.95;6.38;;;10.90;99.90;;;;;;6067015;23;20010;-85
2022/10/20 10:32:00;;;;;;;12.00;6.65;;;10.30;99.90;;;;;;6044124;23;20046;-85
2022/10/20 10:34:52;;;;;;;11.20;6.65;;;11.00;99.90;;;;;;6041999;23;20120;-85
2022/10/20 10:37:18;;;;;;;11.30;6.25;;;11.50;99.90;;;;;;6066814;23;20097;-86
2022/10/20 10:39:44;;;;;;;12.32;6.85;;;11.10;99.90;;;;;;6066457;23;20016;-85
2022/10/20 10:42:37;;;;;;;11.70;6.30;;;11.20;99.90;;;;;;6020207;23;20014;-85
2022/10/20 10:45:38;;;;;;;11.43;6.40;;;11.30;99.90;;;;;;6043073;23;20015;-85
2022/10/20 10:48:25;;;;;;;13.65;6.43;;;11.40;99.90;;;;;;6012847;23;20053;-85
2022/10/20 10:51:01;;;;;;;10.45;6.07;;;11.40;99.90;;;;;;6043455;23;20036;-86
2022/10/20 10:53:42;;;;;;;13.85;6.82;;;11.40;99.90;;;;;;6067022;23;20019;-85
2022/10/20 10:56:35;;;;;;;13.10;6.57;;;11.50;99.90;;;;;;6066986;23;20015;-85
2022/10/20 10:59:16;;;;;;;10.43;6.07;;;11.50;99.90;;;;;;6043482;23;20046;-84
2022/10/20 11:01:41;;;;;;;10.43;6.00;;;11.50;99.90;;;;;;6043292;23;20040;-85
2022/10/20 11:05:05;;;;;;;12.52;6.65;;;11.60;99.90;;;;;;6042657;23;20014;-85
2022/10/20 11:08:11;;;;;;;13.73;6.80;;;11.80;99.90;;;;;;5902318;24;20027;-85
2022/10/20 11:11:00;;;;;;;11.13;6.53;;;11.90;99.90;;;;;;5902090;24;20253;-85
2022/10/20 11:13:34;;;;;;;13.20;6.60;;;12.10;99.90;;;;;;6028201;23;20050;-85
2022/10/20 11:16:22;;;;;;;11.05;6.32;;;12.30;99.90;;;;;;6042988;23;20020;-85
2022/10/20 11:19:15;;;;;;;10.93;6.00;;;12.40;99.90;;;;;;6043414;23;20471;-86
2022/10/20 11:22:03;;;;;;;13.60;6.55;;;12.50;99.90;;;;;;6043783;23;20074;-86
2022/10/20 11:24:38;;;;;;;11.40;6.00;;;12.60;99.90;;;;;;6067286;23;20475;-86
2022/10/20 11:27:17;;;;;;;16.42;6.78;;;12.60;99.90;;;;;;6042412;23;20011;-85
2022/10/20 11:29:52;;;;;;;11.82;6.13;;;12.70;99.90;;;;;;6043348;23;20052;-86
2022/10/20 11:32:25;;;;;;;13.25;5.90;;;12.70;99.90;;;;;;6066964;23;20049;-86
2022/10/20 11:35:28;;;;;;;12.70;6.03;;;12.80;99.90;;;;;;6043410;23;20014;-86
2022/10/20 11:38:22;;;;;;;11.82;6.00;;;12.80;99.90;;;;;;6020397;23;20048;-86
2022/10/20 11:40:59;;;;;;;10.38;5.97;;;12.70;99.90;;;;;;6042035;23;20385;-86
2022/10/20 11:43:30;;;;;;;14.55;6.82;;;12.90;99.90;;;;;;6043087;23;20018;-86
2022/10/20 11:46:34;;;;;;;12.82;6.80;;;12.90;99.90;;;;;;6067283;23;20404;-85
2022/10/20 11:49:00;;;;;;;12.05;6.00;;;12.90;99.90;;;;;;6045974;23;20026;-86
2022/10/20 11:51:29;;;;;;;12.23;6.45;;;12.90;99.90;;;;;;6043436;23;20483;-85
2022/10/20 11:54:07;;;;;;;11.90;6.72;;;13.00;99.90;;;;;;6043239;23;20024;-85
2022/10/20 11:57:00;;;;;;;11.82;6.18;;;13.00;99.90;;;;;;6043552;23;20010;-85
2022/10/20 11:59:56;;;;;;;11.48;6.22;;;13.00;99.90;;;;;;6067065;23;20014;-85
2022/10/20 12:02:40;;;;;;;11.35;6.65;;;12.90;99.90;;;;;;6042923;23;20025;-85
2022/10/20 12:05:24;;;;;;;11.95;6.65;;;12.90;99.90;;;;;;6066370;23;20018;-86
2022/10/20 12:08:17;;;;;;;13.02;6.85;;;13.10;99.90;;;;;;6043013;23;20518;-85
2022/10/20 12:10:56;;;;;;;12.07;7.00;;;12.90;99.90;;;;;;6043342;23;20014;-85
2022/10/20 12:13:36;;;;;;;13.13;6.70;;;12.90;99.90;;;;;;6042261;23;20022;-85
2022/10/20 12:16:02;;;;;;;13.75;7.00;;;12.90;99.90;;;;;;6043254;23;20019;-86
2022/10/20 12:18:29;;;;;;;12.35;6.57;;;12.80;99.90;;;;;;6042529;23;20011;-86
2022/10/20 12:20:59;;;;;;;12.20;6.60;;;12.80;99.90;;;;;;6043449;23;20015;-85
2022/10/20 12:24:04;;;;;;;12.98;7.45;;;12.80;99.90;;;;;;6042706;23;20014;-86
2022/10/20 12:26:33;;;;;;;13.55;7.10;;;12.80;99.90;;;;;;5947220;24;20048;-85
2022/10/20 12:29:00;;;;;;;14.15;7.78;;;12.70;99.90;;;;;;6023891;23;20093;-86
2022/10/20 12:32:03;;;;;;;13.93;7.43;;;12.70;99.90;;;;;;6067289;23;20022;-86
2022/10/20 12:34:38;;;;;;;13.57;7.53;;;12.70;99.90;;;;;;6066986;23;20365;-86
2022/10/20 12:37:31;;;;;;;12.77;6.80;;;12.70;99.90;;;;;;6042839;23;20026;-87
2022/10/20 12:40:17;;;;;;;;;;;12.70;99.90;;;;;;6076482;23;20029;-86
2022/10/20 12:42:48;;;;;;;13.00;6.90;;;12.70;99.90;;;;;;6043106;23;20061;-86
2022/10/20 12:45:19;;;;;;;14.57;7.00;;;12.70;99.90;;;;;;6042879;23;20015;-86
2022/10/20 12:47:49;;;;;;;11.52;6.82;;;12.70;99.90;;;;;;6042855;23;20022;-86
2022/10/20 12:50:32;;;;;;;13.30;7.30;;;12.60;99.90;;;;;;6065859;23;20114;-86
2022/10/20 12:53:17;;;;;;;13.30;7.05;;;12.60;99.90;;;;;;6068486;23;20018;-85
2022/10/20 12:55:46;;;;;;;13.45;8.38;;;12.60;99.90;;;;;;6044829;23;20021;-86
2022/10/20 12:58:17;;;;;;;16.70;8.23;;;12.60;99.90;;;;;;6044244;23;20093;-86
2022/10/20 13:00:46;;;;;;;16.20;7.28;;;12.60;99.90;;;;;;6044412;23;20066;-86
2022/10/20 13:03:30;;;;;;;16.17;7.93;;;12.50;99.90;;;;;;6044386;23;20014;-86
2022/10/20 13:06:00;;;;;;;15.57;8.45;;;12.60;99.90;;;;;;6044576;23;20018;-85